Time;durP1;ratioP1;P1;durP2;ratioP2;P2;SDS_P1;SDS_P2;PMS_P1;PMS_P2;Temp;Humidity;BMP_temperature;BMP_pressure;BME280_temperature;BME280_humidity;BME280_pressure;Samples;Min_cycle;Max_cycle;Signal;HPM_P1;HPM_P2
2022/03/08 00:00:40;;;;;;;;;;;14.10;70.00;;;;;;5228075;28;19931;-32
2022/03/08 00:03:15;;;;;;;;;;;14.10;70.00;;;;;;5227188;28;20294;-31
2022/03/08 00:05:46;;;;;;;;;;;14.10;69.90;;;;;;5227671;28;19979;-33
2022/03/08 00:08:17;;;;;;;;;;;14.10;69.80;;;;;;5226511;28;19924;-33
2022/03/08 00:10:48;;;;;;;;;;;14.10;69.70;;;;;;5228846;28;19925;-31
2022/03/08 00:13:20;;;;;;;;;;;14.10;69.50;;;;;;5210387;28;19925;-30
2022/03/08 00:15:51;;;;;;;;;;;14.00;69.40;;;;;;5226960;28;20302;-30
2022/03/08 00:18:22;;;;;;;;;;;14.00;69.20;;;;;;5228090;28;19963;-31
2022/03/08 00:20:53;;;;;;;;;;;14.00;69.20;;;;;;5227991;28;19971;-30
2022/03/08 00:23:24;;;;;;;;;;;14.00;69.30;;;;;;5226571;28;19925;-31
2022/03/08 00:25:55;;;;;;;;;;;14.00;69.20;;;;;;5227773;28;19979;-31
2022/03/08 00:28:27;;;;;;;;;;;14.00;69.20;;;;;;5227092;28;20346;-30
2022/03/08 00:30:57;;;;;;;;;;;13.90;69.10;;;;;;5226370;28;19963;-31
2022/03/08 00:33:28;;;;;;;;;;;13.90;68.90;;;;;;5228670;28;19931;-35
2022/03/08 00:35:59;;;;;;;;;;;13.90;68.90;;;;;;5230626;28;19925;-31
2022/03/08 00:38:30;;;;;;;;;;;13.90;68.80;;;;;;5231755;28;19925;-31
2022/03/08 00:41:01;;;;;;;;;;;13.90;68.80;;;;;;5230510;28;19929;-30
2022/03/08 00:43:33;;;;;;;;;;;13.90;68.80;;;;;;5231353;28;19928;-31
2022/03/08 00:46:03;;;;;;;;;;;13.90;68.90;;;;;;5230576;28;20274;-32
2022/03/08 00:48:34;;;;;;;;;;;13.90;68.90;;;;;;5231559;28;20283;-31
2022/03/08 00:51:05;;;;;;;;;;;13.90;69.20;;;;;;5231690;28;19932;-32
2022/03/08 00:53:37;;;;;;;;;;;13.90;69.20;;;;;;5230526;28;19925;-32
2022/03/08 00:56:07;;;;;;;;;;;13.90;69.20;;;;;;5231357;28;19929;-30
2022/03/08 00:58:38;;;;;;;;;;;13.90;69.20;;;;;;5231524;28;19925;-31
2022/03/08 01:01:09;;;;;;;;;;;13.80;69.10;;;;;;5231518;28;19978;-30
2022/03/08 01:03:40;;;;;;;;;;;13.90;68.90;;;;;;5231231;28;19956;-32
2022/03/08 01:06:11;;;;;;;;;;;13.90;68.80;;;;;;5231220;28;19964;-31
2022/03/08 01:08:42;;;;;;;;;;;13.90;68.80;;;;;;5231270;28;20278;-31
2022/03/08 01:11:13;;;;;;;;;;;13.80;68.70;;;;;;5231301;28;19925;-30
2022/03/08 01:13:44;;;;;;;;;;;13.80;68.70;;;;;;5229210;28;19971;-33
2022/03/08 01:16:15;;;;;;;;;;;13.80;68.60;;;;;;5231263;28;19928;-31
2022/03/08 01:18:47;;;;;;;;;;;13.80;68.50;;;;;;5230824;28;19925;-31
2022/03/08 01:21:18;;;;;;;;;;;13.80;68.50;;;;;;5231009;28;19925;-33
2022/03/08 01:23:52;;;;;;;;;;;13.80;68.50;;;;;;5230039;28;20371;-30
2022/03/08 01:26:23;;;;;;;;;;;13.80;68.50;;;;;;5231050;28;19925;-34
2022/03/08 01:28:55;;;;;;;;;;;13.80;68.40;;;;;;5230766;28;19925;-32
2022/03/08 01:31:26;;;;;;;;;;;13.80;68.40;;;;;;5230794;28;19932;-31
2022/03/08 01:33:57;;;;;;;;;;;13.80;68.30;;;;;;5230825;28;19926;-31
2022/03/08 01:36:28;;;;;;;;;;;13.80;68.30;;;;;;5230497;28;19960;-30
2022/03/08 01:38:59;;;;;;;;;;;13.80;68.40;;;;;;5229888;28;19929;-32
2022/03/08 01:41:30;;;;;;;;;;;13.80;68.40;;;;;;5230007;28;19978;-32
2022/03/08 01:44:01;;;;;;;;;;;13.80;68.40;;;;;;5230078;28;19928;-30
2022/03/08 01:46:32;;;;;;;;;;;13.80;68.60;;;;;;5230575;28;19925;-31
2022/03/08 01:49:04;;;;;;;;;;;13.70;68.60;;;;;;5230588;28;19970;-30
2022/03/08 01:51:36;;;;;;;;;;;13.70;68.60;;;;;;5229178;28;19925;-31
2022/03/08 01:54:07;;;;;;;;;;;13.70;68.50;;;;;;5229475;28;19924;-31
2022/03/08 01:56:38;;;;;;;;;;;13.70;68.30;;;;;;5230006;28;19924;-31
2022/03/08 01:59:10;;;;;;;;;;;13.70;68.40;;;;;;5230730;28;20278;-31
2022/03/08 02:01:40;;;;;;;;;;;13.70;68.20;;;;;;5230551;28;19929;-32
2022/03/08 02:04:12;;;;;;;;;;;13.70;68.10;;;;;;5229905;28;19932;-31
2022/03/08 02:06:46;;;;;;;;;;;13.70;68.00;;;;;;5229033;28;20042;-30
2022/03/08 02:09:17;;;;;;;;;;;13.70;68.40;;;;;;5230034;28;19924;-31
2022/03/08 02:11:47;;;;;;;;;;;13.70;67.70;;;;;;5230153;28;19932;-31
2022/03/08 02:14:18;;;;;;;;;;;13.70;67.70;;;;;;5212210;28;19924;-31
2022/03/08 02:16:49;;;;;;;;;;;13.60;67.70;;;;;;5229912;28;19932;-31
2022/03/08 02:19:21;;;;;;;;;;;13.70;67.70;;;;;;5229031;28;20417;-33
2022/03/08 02:21:55;;;;;;;;;;;13.70;67.70;;;;;;5228607;28;19924;-31
2022/03/08 02:24:26;;;;;;;;;;;13.70;67.70;;;;;;5229675;28;19967;-30
2022/03/08 02:26:57;;;;;;;;;;;13.70;67.70;;;;;;5229792;28;20018;-31
2022/03/08 02:29:28;;;;;;;;;;;13.70;67.80;;;;;;5229378;28;19924;-31
2022/03/08 02:31:59;;;;;;;;;;;13.70;68.00;;;;;;5229910;28;20397;-31
2022/03/08 02:34:30;;;;;;;;;;;13.70;68.10;;;;;;5229463;28;19932;-31
2022/03/08 02:37:07;;;;;;;;;;;13.70;68.60;;;;;;5229470;28;19928;-31
2022/03/08 02:39:39;;;;;;;;;;;13.70;69.00;;;;;;5228075;28;19968;-30
2022/03/08 02:42:10;;;;;;;;;;;13.70;69.10;;;;;;5211660;28;19924;-31
2022/03/08 02:44:41;;;;;;;;;;;13.70;68.90;;;;;;5229054;28;19936;-32
2022/03/08 02:47:11;;;;;;;;;;;13.60;68.80;;;;;;5228892;28;19999;-32
2022/03/08 02:49:42;;;;;;;;;;;13.70;68.70;;;;;;5229174;28;19924;-31
2022/03/08 02:52:13;;;;;;;;;;;13.70;68.70;;;;;;5229602;28;20358;-32
2022/03/08 02:54:44;;;;;;;;;;;13.70;68.60;;;;;;5228909;28;19926;-31
2022/03/08 02:57:15;;;;;;;;;;;13.60;68.40;;;;;;5228003;28;19925;-31
2022/03/08 02:59:46;;;;;;;;;;;13.70;68.40;;;;;;5228045;28;19924;-31
2022/03/08 03:02:17;;;;;;;;;;;13.70;68.30;;;;;;5228896;28;19970;-33
2022/03/08 03:04:48;;;;;;;;;;;13.60;68.30;;;;;;5229108;28;19924;-30
2022/03/08 03:07:19;;;;;;;;;;;13.60;68.30;;;;;;5229305;28;19929;-31
2022/03/08 03:09:50;;;;;;;;;;;13.60;68.20;;;;;;5211507;28;19931;-30
2022/03/08 03:12:21;;;;;;;;;;;13.70;68.20;;;;;;5228827;28;20027;-31
2022/03/08 03:14:52;;;;;;;;;;;13.60;68.00;;;;;;5228686;28;19979;-32
2022/03/08 03:17:23;;;;;;;;;;;13.60;68.00;;;;;;5227053;28;20358;-30
2022/03/08 03:19:54;;;;;;;;;;;13.70;68.10;;;;;;5228892;28;19978;-31
2022/03/08 03:22:25;;;;;;;;;;;13.60;68.70;;;;;;5229030;28;20362;-31
2022/03/08 03:24:56;;;;;;;;;;;13.60;68.20;;;;;;5228509;28;19925;-31
2022/03/08 03:27:26;;;;;;;;;;;13.60;68.40;;;;;;5228747;28;19939;-31
2022/03/08 03:29:57;;;;;;;;;;;13.60;69.20;;;;;;5228516;28;19925;-31
2022/03/08 03:32:29;;;;;;;;;;;13.60;68.70;;;;;;5227673;28;19975;-31
2022/03/08 03:35:00;;;;;;;;;;;13.60;68.60;;;;;;5227435;28;19979;-34
2022/03/08 03:37:31;;;;;;;;;;;13.60;68.40;;;;;;5228651;28;19929;-31
2022/03/08 03:40:03;;;;;;;;;;;13.60;68.30;;;;;;5227248;28;19925;-31
2022/03/08 03:42:34;;;;;;;;;;;13.60;68.30;;;;;;5228365;28;19925;-31
2022/03/08 03:45:05;;;;;;;;;;;13.60;68.20;;;;;;5226854;28;19932;-31
2022/03/08 03:47:36;;;;;;;;;;;13.60;68.00;;;;;;5228798;28;20275;-30
2022/03/08 03:50:08;;;;;;;;;;;13.60;67.90;;;;;;5228321;28;19925;-31
2022/03/08 03:52:39;;;;;;;;;;;13.60;67.80;;;;;;5226798;28;19925;-31
2022/03/08 03:55:10;;;;;;;;;;;13.60;67.90;;;;;;5227041;28;19924;-35
2022/03/08 03:57:41;;;;;;;;;;;13.60;67.90;;;;;;5228002;28;19936;-31
2022/03/08 04:00:12;;;;;;;;;;;13.60;68.00;;;;;;5228300;28;19925;-31
2022/03/08 04:02:43;;;;;;;;;;;13.60;68.00;;;;;;5228728;28;19925;-31
2022/03/08 04:05:14;;;;;;;;;;;13.60;67.80;;;;;;5228099;28;19924;-31
2022/03/08 04:07:45;;;;;;;;;;;13.60;67.90;;;;;;5229196;28;19932;-34
2022/03/08 04:10:17;;;;;;;;;;;13.60;67.90;;;;;;5230876;28;20026;-31
2022/03/08 04:12:48;;;;;;;;;;;13.60;68.10;;;;;;5214484;28;19925;-31
2022/03/08 04:15:19;;;;;;;;;;;13.60;68.20;;;;;;5232291;28;19953;-35
2022/03/08 04:17:49;;;;;;;;;;;13.60;68.50;;;;;;5232246;28;19925;-34
2022/03/08 04:20:20;;;;;;;;;;;13.70;68.80;;;;;;5231768;28;19936;-32
2022/03/08 04:22:51;;;;;;;;;;;13.60;68.80;;;;;;5231949;28;19928;-31
2022/03/08 04:25:22;;;;;;;;;;;13.60;68.90;;;;;;5231710;28;19929;-30
2022/03/08 04:27:53;;;;;;;;;;;13.60;68.70;;;;;;5231017;28;19960;-31
2022/03/08 04:30:24;;;;;;;;;;;13.60;68.60;;;;;;5229779;28;20294;-32
2022/03/08 04:32:55;;;;;;;;;;;13.60;68.40;;;;;;5230248;28;19925;-35
2022/03/08 04:35:26;;;;;;;;;;;13.60;68.20;;;;;;5213729;28;19929;-31
2022/03/08 04:37:57;;;;;;;;;;;13.60;68.20;;;;;;5231692;28;19925;-31
2022/03/08 04:40:28;;;;;;;;;;;13.60;68.10;;;;;;5232026;28;19924;-31
2022/03/08 04:42:59;;;;;;;;;;;13.60;68.00;;;;;;5231639;28;19925;-30
2022/03/08 04:45:32;;;;;;;;;;;13.60;68.10;;;;;;5230530;28;19972;-33
2022/03/08 04:48:03;;;;;;;;;;;13.60;68.00;;;;;;5231338;28;20011;-31
2022/03/08 04:50:34;;;;;;;;;;;13.60;67.90;;;;;;5231374;28;19928;-31
2022/03/08 04:53:05;;;;;;;;;;;13.60;67.70;;;;;;5230412;28;19978;-30
2022/03/08 04:55:36;;;;;;;;;;;13.60;67.50;;;;;;5231540;28;19967;-34
2022/03/08 04:58:07;;;;;;;;;;;13.60;67.40;;;;;;5212820;28;20295;-30
2022/03/08 05:00:38;;;;;;;;;;;13.60;67.30;;;;;;5231317;28;19978;-30
2022/03/08 05:03:09;;;;;;;;;;;13.60;67.40;;;;;;5231348;28;19925;-29
2022/03/08 05:05:40;;;;;;;;;;;13.60;67.30;;;;;;5231594;28;19935;-34
2022/03/08 05:08:11;;;;;;;;;;;13.60;67.40;;;;;;5230832;28;19925;-31
2022/03/08 05:10:42;;;;;;;;;;;13.60;67.50;;;;;;5231329;28;19928;-31
2022/03/08 05:13:13;;;;;;;;;;;13.60;67.70;;;;;;5229733;28;19925;-34
2022/03/08 05:15:47;;;;;;;;;;;13.60;67.60;;;;;;5231451;28;20377;-33
2022/03/08 05:18:18;;;;;;;;;;;13.60;67.30;;;;;;5231258;28;20277;-33
2022/03/08 05:20:49;;;;;;;;;;;13.60;67.20;;;;;;5230079;28;19924;-31
2022/03/08 05:23:20;;;;;;;;;;;13.60;67.10;;;;;;5231270;28;19925;-32
2022/03/08 05:25:51;;;;;;;;;;;13.60;67.00;;;;;;5230701;28;20375;-34
2022/03/08 05:28:22;;;;;;;;;;;13.60;67.00;;;;;;5230328;28;19929;-30
2022/03/08 05:30:53;;;;;;;;;;;13.60;67.10;;;;;;5230523;28;20432;-32
2022/03/08 05:33:23;;;;;;;;;;;13.60;67.10;;;;;;5226820;28;19932;-30
2022/03/08 05:35:54;;;;;;;;;;;13.60;67.10;;;;;;5224810;28;20393;-30
2022/03/08 05:38:26;;;;;;;;;;;13.60;67.20;;;;;;5228409;28;20377;-30
2022/03/08 05:40:57;;;;;;;;;;;13.60;67.30;;;;;;5228311;28;19928;-34
2022/03/08 05:43:28;;;;;;;;;;;13.60;67.40;;;;;;5228449;28;19978;-31
2022/03/08 05:46:00;;;;;;;;;;;13.60;67.50;;;;;;5228107;28;19947;-32
2022/03/08 05:48:31;;;;;;;;;;;13.60;67.80;;;;;;5228281;28;19929;-30
2022/03/08 05:51:02;;;;;;;;;;;13.60;67.90;;;;;;5228188;28;19932;-31
2022/03/08 05:53:33;;;;;;;;;;;13.60;68.00;;;;;;5228368;28;19925;-31
2022/03/08 05:56:04;;;;;;;;;;;13.60;68.10;;;;;;5217788;28;19931;-31
2022/03/08 05:58:35;;;;;;;;;;;13.60;68.30;;;;;;5206703;28;20019;-31
2022/03/08 06:01:06;;;;;;;;;;;13.60;68.40;;;;;;5237780;28;20367;-33
2022/03/08 06:03:37;;;;;;;;;;;13.60;68.50;;;;;;5227911;28;19935;-30
2022/03/08 06:06:17;;;;;;;;;;;13.60;68.70;;;;;;5227448;28;19929;-33
2022/03/08 06:08:49;;;;;;;;;;;13.60;68.70;;;;;;5227619;28;19932;-33
2022/03/08 06:11:20;;;;;;;;;;;13.60;69.30;;;;;;5226624;28;19929;-30
2022/03/08 06:13:52;;;;;;;;;;;13.60;68.90;;;;;;5226789;28;19932;-32
2022/03/08 06:16:23;;;;;;;;;;;13.60;69.00;;;;;;5228759;28;20290;-30
2022/03/08 06:18:58;;;;;;;;;;;13.60;69.40;;;;;;5229665;28;19924;-30
2022/03/08 06:21:29;;;;;;;;;;;13.60;70.70;;;;;;5229011;28;19929;-32
2022/03/08 06:24:00;;;;;;;;;;;13.70;71.60;;;;;;5229730;28;19929;-31
2022/03/08 06:26:31;;;;;;;;;;;13.90;71.40;;;;;;5229581;28;19955;-31
2022/03/08 06:29:02;;;;;;;;;;;14.00;72.40;;;;;;5229695;28;20019;-30
2022/03/08 06:31:33;;;;;;;;;;;14.10;73.00;;;;;;5229648;28;19925;-33
2022/03/08 06:34:04;;;;;;;;;;;14.10;72.30;;;;;;5229664;28;19932;-33
2022/03/08 06:36:36;;;;;;;;;;;14.30;71.80;;;;;;5229506;28;19925;-33
2022/03/08 06:39:09;;;;;;;;;;;14.30;70.00;;;;;;5229524;28;19925;-31
2022/03/08 06:41:40;;;;;;;;;;;14.30;69.80;;;;;;5229370;28;20275;-30
2022/03/08 06:44:11;;;;;;;;;;;14.30;69.70;;;;;;5228269;28;19963;-32
2022/03/08 06:46:46;;;;;;;;;;;14.30;69.80;;;;;;5229382;28;19978;-34
2022/03/08 06:49:20;;;;;;;;;;;14.30;69.80;;;;;;5229193;28;20271;-31
2022/03/08 06:51:51;;;;;;;;;;;14.30;69.80;;;;;;5229926;28;19974;-30
2022/03/08 06:54:26;;;;;;;;;;;14.30;70.00;;;;;;5228052;28;19928;-30
2022/03/08 06:57:01;;;;;;;;;;;14.30;70.10;;;;;;5228812;28;20015;-31
2022/03/08 06:59:32;;;;;;;;;;;14.30;71.10;;;;;;5229188;28;19931;-30
2022/03/08 07:02:03;;;;;;;;;;;14.30;73.00;;;;;;5228000;28;19975;-33
2022/03/08 07:04:34;;;;;;;;;;;14.40;73.60;;;;;;5228941;28;19924;-33
2022/03/08 07:07:05;;;;;;;;;;;14.50;73.50;;;;;;5228966;28;20389;-31
2022/03/08 07:09:36;;;;;;;;;;;14.60;74.70;;;;;;5229073;28;19925;-30
2022/03/08 07:12:08;;;;;;;;;;;14.70;77.00;;;;;;5228782;28;19958;-34
2022/03/08 07:14:41;;;;;;;;;;;14.80;73.00;;;;;;5227679;28;20378;-33
2022/03/08 07:17:13;;;;;;;;;;;14.80;71.80;;;;;;5228911;28;19932;-30
2022/03/08 07:19:47;;;;;;;28.30;21.83;;;14.80;71.50;;;;;;5211130;28;19925;-34
2022/03/08 07:22:18;;;;;;;34.20;25.17;;;14.80;71.50;;;;;;5228015;28;19928;-30
2022/03/08 07:24:49;;;;;;;35.67;26.83;;;14.80;71.40;;;;;;5228157;28;20041;-35
2022/03/08 07:27:23;;;;;;;27.17;21.80;;;14.80;71.60;;;;;;5228043;28;20540;-33
2022/03/08 07:29:54;;;;;;;21.37;17.80;;;14.80;71.90;;;;;;5228226;28;20383;-30
2022/03/08 07:32:26;;;;;;;19.10;15.10;;;14.80;72.10;;;;;;5227767;28;20400;-32
2022/03/08 07:34:57;;;;;;;18.33;14.07;;;14.70;72.30;;;;;;5227662;28;20538;-32
2022/03/08 07:37:33;;;;;;;18.17;12.00;;;14.70;72.50;;;;;;5227606;28;20053;-32
2022/03/08 07:40:05;;;;;;;19.37;12.37;;;14.70;72.70;;;;;;5227971;28;20068;-33
2022/03/08 07:42:36;;;;;;;19.50;14.60;;;14.60;72.80;;;;;;5227198;28;20045;-30
2022/03/08 07:45:08;;;;;;;17.23;13.20;;;14.60;72.90;;;;;;5226623;28;20090;-30
2022/03/08 07:47:39;;;;;;;16.83;13.53;;;14.60;73.10;;;;;;5226340;28;20056;-30
2022/03/08 07:50:10;;;;;;;;;;;14.60;73.40;;;;;;5228071;28;20506;-30
2022/03/08 07:52:41;;;;;;;;;;;14.60;73.50;;;;;;5228283;28;19925;-30
2022/03/08 07:55:12;;;;;;;;;;;14.60;73.60;;;;;;5228010;28;19927;-32
2022/03/08 07:57:43;;;;;;;;;;;14.50;73.70;;;;;;5228448;28;19921;-33
2022/03/08 08:00:14;;;;;;;;;;;14.50;73.80;;;;;;5228347;28;19927;-31
2022/03/08 08:02:46;;;;;;;;;;;14.50;73.90;;;;;;5226968;28;19952;-29
2022/03/08 08:05:17;;;;;;;;;;;14.50;74.00;;;;;;5226926;28;19952;-30
2022/03/08 08:07:49;;;;;;;;;;;14.40;74.00;;;;;;5228484;28;19921;-33
2022/03/08 08:10:19;;;;;;;;;;;14.40;74.00;;;;;;5228342;28;19927;-31
2022/03/08 08:12:50;;;;;;;;;;;14.40;74.10;;;;;;5228059;28;19932;-34
2022/03/08 08:15:21;;;;;;;;;;;14.40;74.10;;;;;;5227782;28;19925;-30
2022/03/08 08:17:52;;;;;;;;;;;14.40;74.30;;;;;;5227988;28;20312;-31
2022/03/08 08:20:23;;;;;;;;;;;14.40;74.50;;;;;;5228645;28;19927;-31
2022/03/08 08:22:55;;;;;;;;;;;14.30;74.60;;;;;;5228046;28;19971;-30
2022/03/08 08:25:27;;;;;;;;;;;14.30;74.70;;;;;;5226943;28;19928;-32
2022/03/08 08:27:58;;;;;;;;;;;14.30;74.90;;;;;;5228111;28;19960;-32
2022/03/08 08:30:29;;;;;;;;;;;14.30;75.10;;;;;;5227877;28;20324;-34
2022/03/08 08:33:00;;;;;;;;;;;14.40;75.30;;;;;;5228295;28;19959;-32
2022/03/08 08:35:31;;;;;;;;;;;14.30;75.50;;;;;;5226854;28;20011;-31
2022/03/08 08:38:02;;;;;;;;;;;14.30;75.60;;;;;;5226838;28;19920;-30
2022/03/08 08:40:36;;;;;;;;;;;14.30;75.70;;;;;;5228004;28;19920;-33
2022/03/08 08:43:07;;;;;;;;;;;14.30;75.90;;;;;;5227850;28;19978;-31
2022/03/08 08:45:38;;;;;;;;;;;14.30;76.00;;;;;;5227611;28;19925;-31
2022/03/08 08:48:21;;;;;;;;;;;14.30;76.20;;;;;;5226494;28;19920;-31
2022/03/08 08:50:57;;;;;;;;;;;14.30;76.50;;;;;;5228180;28;19927;-31
2022/03/08 08:53:28;;;;;;;;;;;14.30;76.60;;;;;;5227802;28;19925;-30
2022/03/08 08:55:59;;;;;;;;;;;14.20;76.50;;;;;;5230412;28;20282;-32
2022/03/08 08:58:30;;;;;;;;;;;14.30;76.70;;;;;;5231626;28;19921;-31
2022/03/08 09:01:01;;;;;;;;;;;14.30;76.70;;;;;;5231542;28;19928;-30
2022/03/08 09:03:32;;;;;;;;;;;14.30;76.80;;;;;;5230678;28;19966;-34
2022/03/08 09:06:12;;;;;;;;;;;14.30;76.80;;;;;;5231101;28;19940;-30
2022/03/08 09:08:49;;;;;;;;;;;14.30;76.90;;;;;;5229802;28;19944;-33
2022/03/08 09:11:20;;;;;;;;;;;14.20;76.90;;;;;;5231443;28;20006;-33
2022/03/08 09:13:52;;;;;;;;;;;14.20;76.90;;;;;;5230693;28;19956;-30
2022/03/08 09:16:23;;;;;;;;;;;14.10;77.00;;;;;;5231416;28;19924;-30
2022/03/08 09:18:56;;;;;;;;;;;14.10;77.00;;;;;;5229595;28;19927;-31
2022/03/08 09:21:39;;;;;;;;;;;14.10;76.90;;;;;;5230275;28;19920;-34
2022/03/08 09:24:25;;;;;;;;;;;14.00;76.80;;;;;;5231741;28;19978;-30
2022/03/08 09:27:01;;;;;;;;;;;14.00;76.80;;;;;;5231267;28;19948;-30
2022/03/08 09:29:35;;;;;;;;;;;14.00;76.90;;;;;;5231153;28;19927;-30
2022/03/08 09:32:06;;;;;;;;;;;14.00;76.90;;;;;;5213766;28;19920;-30
2022/03/08 09:34:39;;;;;;;;;;;14.00;77.10;;;;;;5231004;28;19921;-30
2022/03/08 09:37:10;;;;;;;;;;;14.00;77.60;;;;;;5230621;28;19927;-30
2022/03/08 09:40:18;;;;;;;;;;;14.00;79.70;;;;;;5229603;28;19932;-31
2022/03/08 09:46:58;;;;;;;;;;;;;;;;;;;;;
2022/03/08 09:49:47;;;;;;;;;;;14.20;77.60;;;;;;5229292;28;19924;-35
2022/03/08 09:52:20;;;;;;;;;;;14.20;77.40;;;;;;5196309;28;19920;-33
2022/03/08 09:54:55;;;;;;;;;;;14.30;77.00;;;;;;5196470;28;19967;-31
2022/03/08 09:57:35;;;;;;;;;;;14.30;76.80;;;;;;5230625;28;20284;-30
2022/03/08 10:03:07;;;;;;;;;;;14.30;76.50;;;;;;5229914;28;19939;-30
2022/03/08 10:05:41;;;;;;;;;;;14.30;76.60;;;;;;5201661;28;19920;-33
2022/03/08 10:08:19;;;;;;;;;;;14.20;76.60;;;;;;5220604;28;19957;-32
2022/03/08 10:10:52;;;;;;;;;;;14.20;76.30;;;;;;5226123;28;19921;-31
2022/03/08 10:13:26;;;;;;;;;;;14.20;76.50;;;;;;5215539;28;19925;-31
2022/03/08 10:16:12;;;;;;;;;;;14.30;77.50;;;;;;5227314;28;19921;-30
2022/03/08 10:18:47;;;;;;;;;;;14.20;77.20;;;;;;5227644;28;19925;-30
2022/03/08 10:21:24;;;;;;;;;;;14.20;77.20;;;;;;5227895;28;19920;-30
2022/03/08 10:23:55;;;;;;;;;;;14.20;76.80;;;;;;5227578;28;19928;-30
2022/03/08 10:29:48;;;;;;;;;;;14.20;76.10;;;;;;5200516;28;20460;-30
2022/03/08 10:32:21;;;;;;;;;;;14.20;75.80;;;;;;5226103;28;19968;-32
2022/03/08 10:34:54;;;;;;;;;;;14.20;75.50;;;;;;5227381;28;19920;-30
2022/03/08 10:37:27;;;;;;;;;;;14.10;75.40;;;;;;5209436;28;19925;-30
2022/03/08 10:40:00;;;;;;;;;;;14.10;75.30;;;;;;5227628;28;19975;-32
2022/03/08 10:42:31;;;;;;;;;;;14.10;75.90;;;;;;5209411;28;20391;-30
2022/03/08 10:45:10;;;;;;;;;;;14.10;75.40;;;;;;5220637;28;19953;-32
2022/03/08 10:47:41;;;;;;;;;;;14.10;75.50;;;;;;5184643;28;20024;-30
2022/03/08 10:50:13;;;;;;;;;;;14.00;75.40;;;;;;5186064;28;19931;-31
2022/03/08 10:52:47;;;;;;;;;;;14.00;75.50;;;;;;5168495;28;20405;-31
2022/03/08 10:55:19;;;;;;;;;;;14.00;75.40;;;;;;5186031;28;20349;-32
2022/03/08 10:57:50;;;;;;;;;;;14.00;75.60;;;;;;5184632;28;20358;-30
2022/03/08 11:00:27;;;;;;;;;;;14.00;75.60;;;;;;5185830;28;19921;-31
2022/03/08 11:03:01;;;;;;;;;;;14.00;75.40;;;;;;5186000;28;20433;-30
2022/03/08 11:05:36;;;;;;;;;;;14.00;75.10;;;;;;5184786;28;20005;-29
2022/03/08 11:08:07;;;;;;;;;;;14.00;75.10;;;;;;5185789;28;19928;-31
2022/03/08 11:10:38;;;;;;;;;;;13.90;74.90;;;;;;5185555;28;19921;-30
2022/03/08 11:13:10;;;;;;;;;;;14.00;74.90;;;;;;5168065;28;19921;-30
2022/03/08 11:15:43;;;;;;;;;;;14.00;75.30;;;;;;5184497;28;19928;-30
2022/03/08 11:18:14;;;;;;;;;;;13.90;75.10;;;;;;5184994;28;19936;-31
2022/03/08 11:20:46;;;;;;;;;;;13.90;78.20;;;;;;5185434;28;19933;-30
2022/03/08 11:23:18;;;;;;;;;;;14.00;78.50;;;;;;5185507;28;20364;-34
2022/03/08 11:25:49;;;;;;;;;;;14.00;76.80;;;;;;5184156;28;19963;-30
2022/03/08 11:28:20;;;;;;;;;;;14.00;77.70;;;;;;5184247;28;19967;-30
2022/03/08 11:30:52;;;;;;;;;;;14.00;76.70;;;;;;5166964;28;20429;-30
2022/03/08 11:33:42;;;;;;;;;;;14.10;75.90;;;;;;5184428;28;20243;-30
2022/03/08 11:36:21;;;;;;;;;;;14.10;75.30;;;;;;5171749;28;19922;-30
2022/03/08 11:39:13;;;;;;;;;;;14.10;74.70;;;;;;5185521;28;19975;-30
2022/03/08 11:41:45;;;;;;;;;;;14.10;74.50;;;;;;5184016;28;19984;-32
2022/03/08 11:44:19;;;;;;;;;;;13.20;73.60;;;;;;5184248;28;21813;-30
2022/03/08 11:47:01;;;;;;;;;;;12.30;76.20;;;;;;5188345;28;19968;-32
2022/03/08 11:49:37;;;;;;;;;;;11.70;77.10;;;;;;5189350;28;19928;-32
2022/03/08 11:52:09;;;;;;;;;;;11.50;78.90;;;;;;5207441;28;19967;-30
2022/03/08 11:54:40;;;;;;;;;;;11.20;77.50;;;;;;5190087;28;19921;-30
2022/03/08 11:57:17;;;;;;;;;;;11.10;78.90;;;;;;5208215;28;19921;-32
2022/03/08 12:00:09;;;;;;;;;;;11.10;77.80;;;;;;5207871;28;19928;-33
2022/03/08 12:02:51;;;;;;;;;;;11.00;79.70;;;;;;5207615;28;20012;-31
2022/03/08 12:05:38;;;;;;;;;;;10.90;78.70;;;;;;5190165;28;19953;-32
2022/03/08 12:08:28;;;;;;;;;;;10.90;79.40;;;;;;5207751;28;19928;-30
2022/03/08 12:11:02;;;;;;;;;;;10.80;75.00;;;;;;5200510;28;19967;-31
2022/03/08 12:13:34;;;;;;;;;;;10.80;77.50;;;;;;5192521;28;19921;-30
2022/03/08 12:16:05;;;;;;;;;;;10.90;75.80;;;;;;5174029;28;20271;-30
2022/03/08 12:18:41;;;;;;;;;;;10.90;73.80;;;;;;5186920;28;20314;-33
2022/03/08 12:21:15;;;;;;;;;;;10.90;74.30;;;;;;5185750;28;19928;-32
2022/03/08 12:24:05;;;;;;;;;;;11.00;73.80;;;;;;5187037;28;19926;-34
2022/03/08 12:26:43;;;;;;;;;;;11.00;73.10;;;;;;5186922;28;20322;-31
2022/03/08 12:29:15;;;;;;;;;;;11.00;74.50;;;;;;5188821;28;19979;-33
2022/03/08 12:31:56;;;;;;;;;;;11.00;75.40;;;;;;5190028;28;19987;-29
2022/03/08 12:34:39;;;;;;;;;;;11.00;76.30;;;;;;5191182;28;19925;-34
2022/03/08 12:37:12;;;;;;;;;;;11.00;75.60;;;;;;5197336;28;20039;-33
2022/03/08 12:39:46;;;;;;;;;;;11.10;76.30;;;;;;5206243;28;19967;-30
2022/03/08 12:42:33;;;;;;;;;;;11.00;74.80;;;;;;5209016;28;20020;-32
2022/03/08 12:45:05;;;;;;;;;;;11.00;76.20;;;;;;5191173;28;19933;-30
2022/03/08 12:47:41;;;;;;;;;;;11.00;75.90;;;;;;5209127;28;20354;-33
2022/03/08 12:50:16;;;;;;;;;;;11.00;75.30;;;;;;5208533;28;19952;-30
2022/03/08 12:52:48;;;;;;;;;;;11.00;75.10;;;;;;5191263;28;19971;-29
2022/03/08 12:55:23;;;;;;;;;;;11.00;75.00;;;;;;5190983;28;20044;-31
2022/03/08 12:57:55;;;;;;;;;;;10.90;76.60;;;;;;5191266;28;19933;-32
2022/03/08 13:00:36;;;;;;;;;;;10.90;75.20;;;;;;5208458;28;20020;-31
2022/03/08 13:03:10;;;;;;;;;;;10.90;74.80;;;;;;5208630;28;20012;-30
2022/03/08 13:05:46;;;;;;;;;;;10.80;76.10;;;;;;5208351;28;19943;-33
2022/03/08 13:08:17;;;;;;;;;;;10.80;77.10;;;;;;5194696;28;19925;-31
2022/03/08 13:10:53;;;;;;;;;;;10.80;76.00;;;;;;5187907;28;19925;-31
2022/03/08 13:13:24;;;;;;;;;;;10.80;78.50;;;;;;5208524;28;19928;-31
2022/03/08 13:15:57;;;;;;;;;;;10.70;79.10;;;;;;5190446;28;19930;-33
2022/03/08 13:18:30;;;;;;;;;;;10.70;78.60;;;;;;5208209;28;19987;-31
2022/03/08 13:21:01;;;;;;;;;;;10.60;78.60;;;;;;5190025;28;19922;-30
2022/03/08 13:23:35;;;;;;;;;;;10.60;78.40;;;;;;5190088;28;19928;-31
2022/03/08 13:26:06;;;;;;;;;;;10.60;79.50;;;;;;5189942;28;20295;-30
2022/03/08 13:28:39;;;;;;;;;;;10.60;78.20;;;;;;5189847;28;20015;-32
2022/03/08 13:31:16;;;;;;;;;;;10.60;79.60;;;;;;5172218;28;20016;-30
2022/03/08 13:33:49;;;;;;;;;;;10.50;78.40;;;;;;5189579;28;19997;-28
2022/03/08 13:36:21;;;;;;;;;;;10.50;77.90;;;;;;5189638;28;19928;-33
2022/03/08 13:38:55;;;;;;;;;;;10.60;80.70;;;;;;5190337;28;19932;-31
2022/03/08 13:41:27;;;;;;;;;;;10.60;80.00;;;;;;5189113;28;19922;-33
2022/03/08 13:43:59;;;;;;;;;;;10.60;80.10;;;;;;5189635;28;20031;-29
2022/03/08 13:46:35;;;;;;;;;;;10.60;79.20;;;;;;5189275;28;19921;-31
2022/03/08 13:49:06;;;;;;;;;;;10.60;80.60;;;;;;5189023;28;19921;-32
2022/03/08 13:51:45;;;;;;;;;;;10.60;79.60;;;;;;5190873;28;19925;-32
2022/03/08 13:54:28;;;;;;;;;;;10.60;78.10;;;;;;5177591;28;20397;-31
2022/03/08 13:56:59;;;;;;;;;;;10.60;77.80;;;;;;5162166;28;19992;-32
2022/03/08 13:59:35;;;;;;;;;;;10.60;78.40;;;;;;5195465;28;20665;-31
2022/03/08 14:02:06;;;;;;;;;;;10.60;79.90;;;;;;5174171;28;20409;-33
2022/03/08 14:04:38;;;;;;;;;;;10.60;77.80;;;;;;5197679;28;19927;-30
2022/03/08 14:17:36;;;;;;;;;;;10.60;80.90;;;;;;5189921;28;20350;-30
2022/03/08 14:20:16;;;;;;;;;;;10.60;81.20;;;;;;5189714;28;19928;-31
2022/03/08 14:23:16;;;;;;;;;;;10.60;80.80;;;;;;5183308;28;19932;-32
2022/03/08 14:25:59;;;;;;;;;;;10.60;81.40;;;;;;5192176;28;19952;-30
2022/03/08 14:28:46;;;;;;;;;;;10.50;81.10;;;;;;5188814;28;20363;-30
2022/03/08 14:31:17;;;;;;;;;;;10.50;81.00;;;;;;5188762;28;19921;-33
2022/03/08 14:33:52;;;;;;;;;;;10.50;81.80;;;;;;5189469;28;19921;-28
2022/03/08 14:36:42;;;;;;;;;;;10.50;81.10;;;;;;5188681;28;19976;-32
2022/03/08 14:39:24;;;;;;;;;;;10.50;81.20;;;;;;5171303;28;19981;-32
2022/03/08 14:41:54;;;;;;;;;;;10.50;80.90;;;;;;5188537;28;20350;-30
2022/03/08 14:44:26;;;;;;;;;;;10.50;81.90;;;;;;5188395;28;19945;-31
2022/03/08 14:46:58;;;;;;;;;;;10.40;81.00;;;;;;5188162;28;19921;-31
2022/03/08 14:49:29;;;;;;;;;;;10.40;82.60;;;;;;5188389;28;19929;-28
2022/03/08 14:52:00;;;;;;;;;;;10.40;82.40;;;;;;5170006;28;20273;-30
2022/03/08 14:54:32;;;;;;;;;;;10.40;82.50;;;;;;5188291;28;19928;-34
2022/03/08 14:57:03;;;;;;;;;;;10.40;82.70;;;;;;5170860;28;19921;-30
2022/03/08 14:59:34;;;;;;;;;;;10.40;82.00;;;;;;5188023;28;20449;-31
2022/03/08 15:02:07;;;;;;;;;;;10.40;83.10;;;;;;5188031;28;19921;-29
2022/03/08 15:04:38;;;;;;;;;;;10.40;82.30;;;;;;5188085;28;19925;-32
2022/03/08 15:07:09;;;;;;;;;;;10.30;81.50;;;;;;5187988;28;19930;-32